Time;durP1;ratioP1;P1;durP2;ratioP2;P2;SDS_P1;SDS_P2;PMS_P1;PMS_P2;Temp;Humidity;BMP_temperature;BMP_pressure;BME280_temperature;BME280_humidity;BME280_pressure;Samples;Min_cycle;Max_cycle;Signal;HPM_P1;HPM_P2
2022/03/06 00:00:41;;;;;;;19.70;12.20;;;7.40;37.80;;;;;;5040592;28;20207;-44
2022/03/06 00:03:08;;;;;;;20.97;12.70;;;7.50;37.80;;;;;;5042844;28;20611;-51
2022/03/06 00:05:34;;;;;;;21.10;13.47;;;7.50;37.80;;;;;;5045993;28;20447;-49
2022/03/06 00:08:02;;;;;;;19.73;12.13;;;7.50;37.80;;;;;;5047274;28;20450;-50
2022/03/06 00:10:28;;;;;;;22.37;13.77;;;7.50;37.70;;;;;;5043837;28;20215;-46
2022/03/06 00:12:54;;;;;;;17.47;11.47;;;7.50;37.60;;;;;;5041477;28;20794;-49
2022/03/06 00:15:21;;;;;;;16.70;11.50;;;7.50;37.60;;;;;;5044453;28;20447;-49
2022/03/06 00:17:47;;;;;;;20.03;13.50;;;7.50;37.60;;;;;;5042668;28;20205;-49
2022/03/06 00:20:13;;;;;;;18.60;11.87;;;7.50;37.60;;;;;;5043132;28;21333;-51
2022/03/06 00:22:38;;;;;;;19.43;12.63;;;7.50;37.40;;;;;;5046162;28;20746;-48
2022/03/06 00:25:05;;;;;;;17.00;11.40;;;7.50;37.30;;;;;;5040814;28;20276;-48
2022/03/06 00:27:31;;;;;;;16.03;11.60;;;7.40;37.30;;;;;;5044280;28;20671;-49
2022/03/06 00:29:56;;;;;;;18.47;11.90;;;7.40;37.50;;;;;;5046472;28;20463;-51
2022/03/06 00:32:22;;;;;;;19.87;12.00;;;7.40;37.60;;;;;;5040829;28;20192;-48
2022/03/06 00:34:48;;;;;;;19.67;12.30;;;7.30;37.60;;;;;;5048426;28;20741;-48
2022/03/06 00:37:15;;;;;;;17.83;12.33;;;7.20;37.50;;;;;;5047376;28;20193;-50
2022/03/06 00:39:41;;;;;;;19.47;11.87;;;7.20;37.60;;;;;;5044592;28;20189;-49
2022/03/06 00:42:08;;;;;;;17.83;12.10;;;7.20;37.60;;;;;;5040245;28;20538;-48
2022/03/06 00:44:34;;;;;;;17.00;11.70;;;7.20;37.70;;;;;;5042089;28;20526;-51
2022/03/06 00:47:00;;;;;;;21.00;12.40;;;7.10;37.90;;;;;;5043278;28;20452;-45
2022/03/06 00:49:26;;;;;;;22.77;11.97;;;7.10;38.00;;;;;;5047425;28;20450;-50
2022/03/06 00:51:51;;;;;;;23.17;12.13;;;7.10;38.10;;;;;;5039020;28;20204;-46
2022/03/06 00:54:17;;;;;;;20.27;11.73;;;7.10;38.20;;;;;;5038583;28;20435;-51
2022/03/06 00:56:43;;;;;;;17.97;11.70;;;7.00;38.20;;;;;;5042097;28;20227;-48
2022/03/06 00:59:09;;;;;;;17.23;11.90;;;7.00;38.30;;;;;;5041311;28;20196;-50
2022/03/06 01:01:34;;;;;;;18.43;10.73;;;7.00;38.50;;;;;;5040843;28;20181;-47
2022/03/06 01:04:00;;;;;;;17.77;11.70;;;7.00;38.60;;;;;;5041750;28;20226;-47
2022/03/06 01:06:26;;;;;;;19.13;11.90;;;6.70;39.20;;;;;;5044767;28;20196;-49
2022/03/06 01:08:51;;;;;;;18.73;13.00;;;6.60;39.70;;;;;;5043664;28;20663;-46
2022/03/06 01:11:17;;;;;;;19.03;12.83;;;6.50;39.90;;;;;;5039504;28;20197;-46
2022/03/06 01:13:43;;;;;;;18.10;11.53;;;6.50;40.00;;;;;;5041642;28;20208;-51
2022/03/06 01:16:08;;;;;;;20.20;12.40;;;6.50;39.80;;;;;;5044648;28;20189;-48
2022/03/06 01:18:34;;;;;;;17.80;12.10;;;6.40;40.10;;;;;;5041573;28;20723;-45
2022/03/06 01:20:59;;;;;;;18.93;12.90;;;6.40;40.30;;;;;;5047389;28;20193;-46
2022/03/06 01:23:25;;;;;;;19.23;12.00;;;6.40;40.30;;;;;;5039949;28;20580;-47
2022/03/06 01:25:51;;;;;;;20.33;13.10;;;6.30;40.60;;;;;;5043832;28;20196;-47
2022/03/06 01:28:16;;;;;;;19.33;12.50;;;6.20;40.60;;;;;;5045618;28;20192;-48
2022/03/06 01:30:42;;;;;;;18.83;12.60;;;6.20;41.10;;;;;;5046572;28;20204;-49
2022/03/06 01:33:08;;;;;;;18.90;12.67;;;6.30;40.50;;;;;;5045431;28;20192;-47
2022/03/06 01:35:33;;;;;;;17.10;12.00;;;6.30;40.40;;;;;;5042313;28;20195;-47
2022/03/06 01:37:59;;;;;;;18.70;12.37;;;6.30;40.40;;;;;;5046450;28;20204;-47
2022/03/06 01:40:25;;;;;;;18.53;12.30;;;6.30;40.60;;;;;;5034872;28;20197;-46
2022/03/06 01:42:50;;;;;;;17.93;11.93;;;6.20;40.60;;;;;;5046683;28;20228;-47
2022/03/06 01:45:19;;;;;;;20.77;12.50;;;6.20;40.60;;;;;;5042202;28;20690;-51
2022/03/06 01:47:47;;;;;;;19.23;12.30;;;6.20;40.60;;;;;;5042602;28;20192;-50
2022/03/06 01:50:23;;;;;;;18.33;11.20;;;6.20;40.50;;;;;;5044426;28;20525;-45
2022/03/06 01:52:51;;;;;;;19.43;12.57;;;6.20;40.60;;;;;;5046661;28;20485;-45
2022/03/06 01:55:18;;;;;;;17.43;12.13;;;6.20;40.70;;;;;;5044241;28;20443;-47
2022/03/06 01:57:45;;;;;;;16.07;11.00;;;6.10;40.60;;;;;;5051113;28;20445;-50
2022/03/06 02:00:14;;;;;;;20.20;13.30;;;6.10;40.60;;;;;;5044743;28;20436;-46
2022/03/06 02:02:40;;;;;;;22.10;12.07;;;6.10;40.60;;;;;;5048270;28;20443;-49
2022/03/06 02:05:07;;;;;;;19.23;11.67;;;6.10;40.60;;;;;;5048851;28;20442;-46
2022/03/06 02:07:32;;;;;;;20.30;12.40;;;6.20;40.60;;;;;;5051466;28;20443;-46
2022/03/06 02:09:59;;;;;;;18.17;11.60;;;6.20;40.50;;;;;;5050621;28;20447;-50
2022/03/06 02:12:25;;;;;;;15.70;11.00;;;6.30;40.60;;;;;;5043599;28;20193;-46
2022/03/06 02:14:52;;;;;;;19.53;12.77;;;6.20;40.60;;;;;;5044541;28;20462;-48
2022/03/06 02:17:18;;;;;;;18.43;10.63;;;6.10;40.60;;;;;;5046663;28;20447;-51
2022/03/06 02:19:56;;;;;;;18.37;11.73;;;6.10;40.80;;;;;;5047439;28;20504;-47
2022/03/06 02:22:30;;;;;;;16.97;11.90;;;6.00;40.80;;;;;;5043615;28;20485;-51
2022/03/06 02:24:56;;;;;;;18.67;12.50;;;6.00;40.90;;;;;;5049464;28;20878;-45
2022/03/06 02:27:22;;;;;;;17.17;11.10;;;6.00;40.90;;;;;;5050865;28;20443;-50
2022/03/06 02:29:48;;;;;;;18.73;11.20;;;5.90;41.00;;;;;;5044516;28;20565;-47
2022/03/06 02:32:17;;;;;;;19.43;11.30;;;5.90;41.10;;;;;;5050139;28;20648;-44
2022/03/06 02:34:45;;;;;;;17.67;11.10;;;5.80;41.10;;;;;;5049049;28;20520;-49
2022/03/06 02:37:11;;;;;;;18.63;11.60;;;5.80;41.30;;;;;;5046289;28;20971;-49
2022/03/06 02:39:36;;;;;;;18.07;10.03;;;5.80;41.30;;;;;;5044577;28;20434;-49
2022/03/06 02:42:03;;;;;;;20.27;11.77;;;5.80;41.40;;;;;;5042671;28;20450;-44
2022/03/06 02:44:29;;;;;;;19.93;12.10;;;5.70;41.50;;;;;;5043925;28;20677;-48
2022/03/06 02:46:55;;;;;;;18.60;11.63;;;5.70;41.60;;;;;;5045126;28;20430;-47
2022/03/06 02:49:21;;;;;;;20.17;11.30;;;5.60;41.60;;;;;;5046572;28;20533;-46
2022/03/06 02:51:47;;;;;;;19.93;12.13;;;5.70;41.70;;;;;;5047006;28;20439;-50
2022/03/06 02:54:17;;;;;;;19.80;12.40;;;5.60;41.70;;;;;;5045113;28;20835;-45
2022/03/06 02:56:43;;;;;;;17.03;11.53;;;5.60;42.00;;;;;;5042989;28;20193;-46
2022/03/06 02:59:09;;;;;;;17.50;11.27;;;5.60;42.30;;;;;;5038936;28;20485;-47
2022/03/06 03:01:41;;;;;;;19.23;11.60;;;5.60;42.20;;;;;;5051042;28;20431;-44
2022/03/06 03:04:08;;;;;;;16.20;11.60;;;5.50;42.20;;;;;;5050336;28;20699;-46
2022/03/06 03:06:33;;;;;;;18.97;12.47;;;5.40;42.70;;;;;;5039207;28;20959;-45
2022/03/06 03:08:59;;;;;;;21.73;11.60;;;5.50;42.80;;;;;;5039871;28;20435;-48
2022/03/06 03:11:25;;;;;;;20.60;11.67;;;5.40;42.80;;;;;;5045454;28;21009;-49
2022/03/06 03:13:51;;;;;;;18.67;12.23;;;5.40;43.20;;;;;;5050535;28;20238;-47
2022/03/06 03:16:16;;;;;;;17.57;11.13;;;5.40;42.80;;;;;;5041056;28;20196;-45
2022/03/06 03:18:42;;;;;;;16.80;11.43;;;5.40;42.80;;;;;;5043720;28;20193;-49
2022/03/06 03:21:07;;;;;;;19.63;11.03;;;5.40;42.80;;;;;;5030740;28;20197;-45
2022/03/06 03:23:33;;;;;;;18.77;11.87;;;5.40;42.70;;;;;;5046866;28;20220;-50
2022/03/06 03:25:59;;;;;;;18.43;11.70;;;5.40;42.70;;;;;;5046003;28;20553;-47
2022/03/06 03:28:24;;;;;;;17.20;11.27;;;5.40;43.20;;;;;;5046914;28;20181;-44
2022/03/06 03:30:50;;;;;;;15.03;9.80;;;5.40;42.60;;;;;;5025639;28;21036;-49
2022/03/06 03:33:16;;;;;;;18.27;10.60;;;5.40;42.70;;;;;;5041010;28;20204;-48
2022/03/06 03:35:41;;;;;;;18.03;10.00;;;5.40;42.70;;;;;;5049588;28;20246;-47
2022/03/06 03:38:07;;;;;;;17.43;10.37;;;5.30;42.70;;;;;;5044027;28;20645;-47
2022/03/06 03:40:32;;;;;;;16.00;11.27;;;5.30;42.60;;;;;;5045081;28;20267;-47
2022/03/06 03:42:58;;;;;;;22.43;11.27;;;5.30;42.50;;;;;;5048235;28;20221;-46
2022/03/06 03:45:24;;;;;;;18.90;10.53;;;5.40;42.50;;;;;;5048756;28;20196;-49
2022/03/06 03:47:49;;;;;;;16.13;10.80;;;5.30;42.40;;;;;;5047259;28;20193;-46
2022/03/06 03:50:15;;;;;;;16.70;10.43;;;5.30;42.60;;;;;;5043567;28;20256;-49
2022/03/06 03:52:40;;;;;;;17.40;9.57;;;5.40;42.60;;;;;;5045618;28;20192;-46
2022/03/06 03:55:08;;;;;;;18.00;11.40;;;5.30;42.60;;;;;;5044261;28;20194;-47
2022/03/06 03:57:33;;;;;;;16.33;10.77;;;5.30;42.70;;;;;;5046481;28;20562;-49
2022/03/06 03:59:59;;;;;;;15.23;9.93;;;5.20;42.70;;;;;;5041220;28;20435;-46
2022/03/06 04:02:24;;;;;;;16.40;10.97;;;5.20;42.80;;;;;;5043257;28;20188;-44
2022/03/06 04:04:50;;;;;;;18.80;11.67;;;5.20;42.90;;;;;;5043930;28;20242;-48
2022/03/06 04:07:16;;;;;;;17.83;10.70;;;5.10;42.80;;;;;;5049243;28;20201;-48
2022/03/06 04:09:42;;;;;;;15.57;10.50;;;5.10;42.80;;;;;;5043351;28;20201;-44
2022/03/06 04:12:08;;;;;;;16.90;11.47;;;5.00;42.80;;;;;;5047858;28;20439;-46
2022/03/06 04:14:34;;;;;;;16.93;11.53;;;5.00;43.10;;;;;;5039602;28;20529;-48
2022/03/06 04:17:00;;;;;;;21.63;11.90;;;4.90;43.10;;;;;;5045121;28;20505;-50
2022/03/06 04:19:26;;;;;;;19.17;10.63;;;4.90;43.70;;;;;;5047784;28;20192;-50
2022/03/06 04:21:53;;;;;;;17.43;10.80;;;4.90;43.40;;;;;;5046616;28;20203;-45
2022/03/06 04:24:18;;;;;;;16.47;10.07;;;4.90;43.50;;;;;;5047407;28;20262;-50
2022/03/06 04:26:44;;;;;;;20.73;10.60;;;4.90;43.60;;;;;;5046073;28;20438;-45
2022/03/06 04:29:10;;;;;;;17.93;11.73;;;4.90;43.70;;;;;;5045688;28;20646;-49
2022/03/06 04:31:35;;;;;;;16.47;11.43;;;4.90;43.60;;;;;;5043746;28;20197;-51
2022/03/06 04:34:02;;;;;;;14.20;9.20;;;4.90;43.60;;;;;;5045342;28;20220;-50
2022/03/06 04:36:28;;;;;;;15.77;10.90;;;4.90;43.60;;;;;;5044787;28;20931;-45
2022/03/06 04:38:54;;;;;;;16.00;10.53;;;4.90;43.50;;;;;;5042948;28;20443;-50
2022/03/06 04:41:20;;;;;;;17.47;10.40;;;4.90;43.60;;;;;;5043989;28;20438;-50
2022/03/06 04:43:45;;;;;;;15.47;9.60;;;4.90;43.60;;;;;;5042127;28;20494;-45
2022/03/06 04:46:11;;;;;;;15.30;9.60;;;4.90;43.70;;;;;;5046491;28;20200;-46
2022/03/06 04:48:37;;;;;;;15.23;9.70;;;4.90;43.60;;;;;;5042910;28;20192;-50
2022/03/06 04:51:04;;;;;;;17.40;11.27;;;4.80;43.70;;;;;;5039050;28;20446;-47
2022/03/06 04:53:30;;;;;;;13.70;9.30;;;4.80;43.80;;;;;;5045439;28;20188;-45
2022/03/06 04:55:56;;;;;;;18.07;9.87;;;4.70;43.80;;;;;;5047162;28;20508;-45
2022/03/06 04:58:21;;;;;;;20.73;11.47;;;4.70;43.90;;;;;;5045412;28;20432;-51
2022/03/06 05:00:47;;;;;;;17.90;11.00;;;4.70;44.00;;;;;;5035094;28;20193;-46
2022/03/06 05:03:13;;;;;;;15.70;10.40;;;4.70;44.20;;;;;;5040375;28;20614;-44
2022/03/06 05:05:38;;;;;;;19.13;11.20;;;4.70;44.10;;;;;;5049430;28;20199;-49
2022/03/06 05:08:04;;;;;;;17.80;11.20;;;4.80;44.00;;;;;;5043882;28;20228;-48
2022/03/06 05:10:29;;;;;;;20.80;11.40;;;4.70;43.90;;;;;;5037634;28;20197;-48
2022/03/06 05:12:55;;;;;;;20.13;10.73;;;4.70;44.20;;;;;;5035786;28;20236;-44
2022/03/06 05:15:21;;;;;;;17.30;10.70;;;4.60;44.20;;;;;;5048708;28;20196;-44
2022/03/06 05:17:46;;;;;;;13.40;9.90;;;4.60;44.30;;;;;;5041304;28;20203;-45
2022/03/06 05:20:12;;;;;;;16.90;11.67;;;4.60;44.30;;;;;;5045223;28;20193;-49
2022/03/06 05:22:39;;;;;;;17.57;11.30;;;4.60;44.40;;;;;;5045451;28;20609;-46
2022/03/06 05:25:06;;;;;;;16.77;11.63;;;4.60;44.50;;;;;;5044362;28;20439;-46
2022/03/06 05:27:32;;;;;;;14.90;10.50;;;4.50;44.50;;;;;;5043098;28;20439;-44
2022/03/06 05:29:57;;;;;;;18.50;11.80;;;4.50;44.60;;;;;;5039790;28;20470;-44
2022/03/06 05:32:23;;;;;;;16.50;10.40;;;4.50;44.60;;;;;;5038006;28;20197;-46
2022/03/06 05:34:49;;;;;;;19.60;10.40;;;4.40;44.90;;;;;;5043824;28;20196;-47
2022/03/06 05:37:14;;;;;;;20.33;11.50;;;4.40;44.90;;;;;;5042800;28;20216;-48
2022/03/06 05:39:40;;;;;;;16.27;11.30;;;4.50;45.00;;;;;;5042104;28;20229;-44
2022/03/06 05:42:06;;;;;;;16.87;10.63;;;4.50;45.00;;;;;;5046709;28;20246;-44
2022/03/06 05:44:32;;;;;;;16.07;11.67;;;4.40;44.90;;;;;;5039964;28;20591;-46
2022/03/06 05:46:57;;;;;;;16.80;9.80;;;4.50;45.00;;;;;;5045032;28;20529;-47
2022/03/06 05:49:23;;;;;;;16.90;10.80;;;4.40;45.10;;;;;;5044088;28;20235;-46
2022/03/06 05:51:48;;;;;;;19.00;10.90;;;4.40;45.20;;;;;;5044168;28;20204;-45
2022/03/06 05:54:14;;;;;;;20.07;11.00;;;4.40;45.30;;;;;;5046474;28;20279;-47
2022/03/06 05:56:40;;;;;;;16.90;10.30;;;4.40;45.30;;;;;;5039293;28;20296;-50
2022/03/06 05:59:06;;;;;;;19.97;11.47;;;4.40;45.30;;;;;;5046163;28;20207;-48
2022/03/06 06:01:32;;;;;;;17.40;11.43;;;4.40;45.20;;;;;;5039018;28;20562;-44
2022/03/06 06:03:59;;;;;;;19.27;11.70;;;4.40;45.20;;;;;;5043767;28;20582;-45
2022/03/06 06:06:26;;;;;;;16.93;10.83;;;4.40;45.10;;;;;;5045679;28;20565;-44
2022/03/06 06:08:53;;;;;;;18.07;11.23;;;4.40;45.10;;;;;;5040479;28;20447;-47
2022/03/06 06:11:19;;;;;;;17.13;10.63;;;4.40;45.20;;;;;;5043175;28;20924;-46
2022/03/06 06:13:45;;;;;;;18.20;11.67;;;4.40;45.20;;;;;;5045540;28;20442;-46
2022/03/06 06:16:10;;;;;;;17.30;10.30;;;4.40;45.10;;;;;;5046163;28;20200;-44
2022/03/06 06:18:36;;;;;;;33.90;12.43;;;4.40;45.60;;;;;;5043786;28;20462;-49
2022/03/06 06:21:03;;;;;;;15.53;9.97;;;4.60;47.60;;;;;;5040967;28;20250;-47
2022/03/06 06:23:28;;;;;;;15.87;10.63;;;5.00;48.20;;;;;;5040783;28;20450;-46
2022/03/06 06:25:54;;;;;;;19.47;11.03;;;5.40;47.50;;;;;;5044170;28;20471;-46
2022/03/06 06:28:20;;;;;;;21.00;12.57;;;5.60;45.80;;;;;;5045242;28;20212;-48
2022/03/06 06:30:45;;;;;;;20.30;12.47;;;5.70;44.40;;;;;;5038764;28;20258;-45
2022/03/06 06:33:11;;;;;;;15.63;11.37;;;5.80;44.40;;;;;;5041858;28;20267;-46
2022/03/06 06:35:37;;;;;;;21.77;12.70;;;6.00;44.00;;;;;;5043145;28;20813;-45
2022/03/06 06:38:03;;;;;;;18.10;11.93;;;6.10;44.00;;;;;;5043053;28;20189;-45
2022/03/06 06:40:30;;;;;;;17.83;11.37;;;6.30;44.10;;;;;;5038887;28;20196;-44
2022/03/06 06:42:55;;;;;;;17.00;12.00;;;6.40;43.20;;;;;;5048920;28;20425;-47
2022/03/06 06:45:21;;;;;;;19.47;13.27;;;6.60;43.20;;;;;;5051473;28;20493;-45
2022/03/06 06:47:47;;;;;;;17.77;11.80;;;6.80;42.40;;;;;;5048297;28;20189;-47
2022/03/06 06:50:12;;;;;;;25.30;11.50;;;6.80;42.20;;;;;;5047949;28;20189;-46
2022/03/06 06:52:38;;;;;;;17.00;10.93;;;6.90;42.10;;;;;;5047628;28;20219;-44
2022/03/06 06:55:05;;;;;;;16.47;11.00;;;7.00;41.80;;;;;;5048349;28;20203;-46
2022/03/06 06:57:32;;;;;;;16.60;10.30;;;7.10;41.40;;;;;;5047005;28;20243;-46
2022/03/06 06:59:58;;;;;;;15.17;11.87;;;6.70;40.90;;;;;;5045637;28;20439;-46
2022/03/06 07:02:24;;;;;;;16.60;11.83;;;6.40;42.70;;;;;;5049569;28;20446;-47
2022/03/06 07:04:50;;;;;;;16.67;11.17;;;6.70;42.40;;;;;;5045794;28;20479;-45
2022/03/06 07:07:15;;;;;;;17.57;11.30;;;7.00;41.90;;;;;;5049005;28;20493;-45
2022/03/06 07:09:41;;;;;;;15.33;11.37;;;7.20;41.10;;;;;;5039447;28;20610;-45
2022/03/06 07:12:08;;;;;;;16.00;10.60;;;7.50;40.70;;;;;;5047860;28;20664;-47
2022/03/06 07:14:33;;;;;;;17.60;12.10;;;7.70;40.20;;;;;;5043008;28;20199;-47
2022/03/06 07:16:59;;;;;;;15.90;11.00;;;7.90;40.00;;;;;;5044121;28;20436;-51
2022/03/06 07:19:25;;;;;;;16.57;10.70;;;8.00;39.40;;;;;;5048082;28;20189;-46
2022/03/06 07:21:50;;;;;;;15.13;10.23;;;8.20;39.20;;;;;;5034101;28;20201;-48
2022/03/06 07:24:16;;;;;;;17.47;11.03;;;8.30;39.10;;;;;;5044870;28;20700;-49
2022/03/06 07:26:42;;;;;;;14.83;10.90;;;8.50;39.10;;;;;;5048682;28;20201;-45
2022/03/06 07:29:07;;;;;;;15.87;10.30;;;8.60;38.80;;;;;;5039794;28;20193;-45
2022/03/06 07:31:33;;;;;;;18.50;11.30;;;8.80;38.50;;;;;;5039860;28;20190;-45
2022/03/06 07:33:59;;;;;;;18.30;11.70;;;8.90;38.50;;;;;;5038779;28;20188;-46
2022/03/06 07:36:25;;;;;;;18.03;11.13;;;9.00;38.30;;;;;;5040960;28;20512;-48
2022/03/06 07:38:51;;;;;;;16.20;11.93;;;9.20;38.00;;;;;;5048496;28;20946;-45
2022/03/06 07:41:17;;;;;;;16.37;11.90;;;9.30;37.70;;;;;;5045165;28;20189;-51
2022/03/06 07:43:43;;;;;;;12.97;10.37;;;9.30;37.70;;;;;;5045420;28;20255;-47
2022/03/06 07:46:08;;;;;;;14.50;10.37;;;9.40;37.90;;;;;;5049774;28;20448;-45
2022/03/06 07:48:34;;;;;;;17.17;11.60;;;9.70;37.70;;;;;;5045127;28;20443;-47
2022/03/06 07:51:00;;;;;;;15.40;11.87;;;9.90;37.30;;;;;;5049093;28;20607;-47
2022/03/06 07:53:25;;;;;;;15.80;12.07;;;10.10;36.00;;;;;;5049004;28;20280;-48
2022/03/06 07:55:51;;;;;;;20.10;13.47;;;10.20;35.60;;;;;;5041266;28;20193;-48
2022/03/06 07:58:17;;;;;;;19.30;13.47;;;10.30;35.20;;;;;;5049873;28;20189;-45
2022/03/06 08:00:42;;;;;;;14.77;11.60;;;10.30;35.10;;;;;;5049712;28;20732;-46
2022/03/06 08:03:08;;;;;;;16.10;12.00;;;10.30;35.10;;;;;;5048209;28;20224;-46
2022/03/06 08:05:33;;;;;;;16.33;12.33;;;10.10;35.30;;;;;;5046656;28;20276;-44
2022/03/06 08:07:59;;;;;;;20.10;14.70;;;10.10;35.60;;;;;;5034789;28;20652;-46
2022/03/06 08:10:24;;;;;;;17.97;13.70;;;10.10;35.60;;;;;;5050279;28;20189;-45
2022/03/06 08:12:50;;;;;;;16.97;12.33;;;10.20;35.70;;;;;;5049694;28;20723;-46
2022/03/06 08:15:16;;;;;;;19.33;13.30;;;10.20;35.80;;;;;;5046586;28;20199;-45
2022/03/06 08:17:42;;;;;;;16.80;13.03;;;10.20;35.70;;;;;;5039357;28;20271;-45
2022/03/06 08:20:08;;;;;;;17.77;12.70;;;10.20;35.80;;;;;;5041231;28;20554;-46
2022/03/06 08:22:34;;;;;;;17.30;13.40;;;10.20;36.00;;;;;;5047632;28;20193;-46
2022/03/06 08:25:00;;;;;;;18.40;13.03;;;10.20;36.20;;;;;;5043250;28;20486;-44
2022/03/06 08:27:26;;;;;;;18.73;11.87;;;10.20;36.10;;;;;;5049933;28;20808;-46
2022/03/06 08:29:52;;;;;;;17.63;12.10;;;10.20;36.60;;;;;;5049378;28;20435;-46
2022/03/06 08:32:18;;;;;;;17.37;12.27;;;10.30;36.50;;;;;;5043937;28;20221;-47
2022/03/06 08:34:44;;;;;;;14.83;11.50;;;10.30;36.40;;;;;;5044052;28;20201;-46
2022/03/06 08:37:10;;;;;;;16.70;11.67;;;10.30;36.50;;;;;;5043928;28;20481;-44
2022/03/06 08:39:35;;;;;;;22.23;13.07;;;10.40;36.80;;;;;;5047906;28;20435;-45
2022/03/06 08:42:01;;;;;;;15.70;11.80;;;10.40;36.70;;;;;;5044802;28;20212;-45
2022/03/06 08:44:27;;;;;;;17.87;12.57;;;10.50;36.70;;;;;;5044358;28;20262;-44
2022/03/06 08:46:53;;;;;;;16.83;12.50;;;10.60;36.60;;;;;;5046383;28;20258;-44
2022/03/06 08:49:19;;;;;;;16.33;12.20;;;10.50;36.50;;;;;;5046180;28;20204;-46
2022/03/06 08:51:44;;;;;;;17.43;13.03;;;10.60;36.70;;;;;;5047407;28;20198;-47
2022/03/06 08:54:10;;;;;;;17.10;12.67;;;10.70;36.60;;;;;;5042487;28;20650;-46
2022/03/06 08:56:36;;;;;;;17.83;12.77;;;10.50;36.80;;;;;;5047053;28;20257;-46
2022/03/06 08:59:01;;;;;;;16.73;12.10;;;10.60;37.00;;;;;;5037508;28;20204;-45
2022/03/06 09:01:27;;;;;;;17.50;12.40;;;10.70;36.90;;;;;;5047355;28;20561;-44
2022/03/06 09:03:52;;;;;;;16.40;11.37;;;10.60;36.80;;;;;;5047837;28;20235;-45
2022/03/06 09:06:18;;;;;;;17.03;11.53;;;10.70;36.80;;;;;;5048359;28;20262;-44
2022/03/06 09:08:44;;;;;;;17.07;11.30;;;10.90;36.40;;;;;;5032325;28;20564;-44
2022/03/06 09:11:10;;;;;;;17.80;11.53;;;10.80;36.10;;;;;;5042958;28;20653;-44
2022/03/06 09:13:36;;;;;;;15.33;11.67;;;10.80;36.50;;;;;;5033049;28;20468;-47
2022/03/06 09:16:03;;;;;;;15.10;11.60;;;11.00;36.10;;;;;;5034676;28;20221;-44
2022/03/06 09:18:29;;;;;;;13.67;10.47;;;11.10;35.60;;;;;;5044368;28;20454;-46
2022/03/06 09:20:54;;;;;;;15.07;10.70;;;10.90;34.60;;;;;;5041163;28;20833;-46
2022/03/06 09:23:20;;;;;;;15.60;10.80;;;11.00;35.50;;;;;;5040920;28;20252;-44
2022/03/06 09:25:46;;;;;;;14.67;10.47;;;11.00;34.90;;;;;;5020991;28;20204;-46
2022/03/06 09:28:11;;;;;;;14.13;10.53;;;11.00;34.80;;;;;;5039760;28;20272;-44
2022/03/06 09:30:37;;;;;;;13.27;9.70;;;10.90;34.50;;;;;;5042159;28;20189;-44
2022/03/06 09:33:03;;;;;;;15.33;9.73;;;11.00;35.20;;;;;;5044043;28;20218;-44
2022/03/06 09:35:29;;;;;;;14.63;10.67;;;10.60;34.50;;;;;;5037995;28;20204;-43
2022/03/06 09:37:55;;;;;;;13.00;10.37;;;10.80;34.40;;;;;;5046930;28;20272;-43
2022/03/06 09:40:21;;;;;;;17.60;11.97;;;11.00;34.10;;;;;;5047571;28;20518;-44
2022/03/06 09:42:47;;;;;;;15.40;10.70;;;10.90;33.90;;;;;;5043020;28;20303;-44
2022/03/06 09:45:14;;;;;;;14.50;10.37;;;10.60;34.50;;;;;;5047024;28;20555;-44
2022/03/06 09:47:41;;;;;;;15.60;11.00;;;10.70;34.50;;;;;;5043894;28;20188;-43
2022/03/06 09:50:09;;;;;;;13.10;10.30;;;10.40;34.40;;;;;;5042055;28;20443;-46
2022/03/06 09:52:35;;;;;;;15.77;10.60;;;10.80;34.60;;;;;;5047392;28;20450;-43
2022/03/06 09:55:01;;;;;;;14.10;10.80;;;10.80;34.00;;;;;;5042392;28;20427;-45
2022/03/06 09:57:27;;;;;;;15.07;10.73;;;11.20;33.70;;;;;;5043947;28;20242;-46
2022/03/06 09:59:52;;;;;;;15.20;11.20;;;10.60;32.30;;;;;;5046200;28;20445;-46
2022/03/06 10:02:18;;;;;;;12.53;10.53;;;10.30;33.10;;;;;;5041352;28;20439;-48
2022/03/06 10:04:46;;;;;;;15.00;10.90;;;10.20;33.50;;;;;;5040718;28;20228;-43
2022/03/06 10:07:17;;;;;;;14.60;10.70;;;10.10;34.40;;;;;;5038121;28;20442;-46
2022/03/06 10:09:51;;;;;;;14.20;10.67;;;10.40;33.90;;;;;;5045812;28;20459;-43
2022/03/06 10:12:19;;;;;;;13.63;10.70;;;10.50;33.30;;;;;;5045330;28;20926;-43
2022/03/06 10:14:45;;;;;;;12.67;10.27;;;10.60;33.50;;;;;;5043936;28;21110;-44
2022/03/06 10:17:20;;;;;;;15.83;9.43;;;10.90;32.90;;;;;;5038231;28;20669;-46
2022/03/06 10:19:54;;;;;;;13.17;9.50;;;11.10;32.10;;;;;;5040858;28;20495;-44
2022/03/06 10:22:22;;;;;;;15.87;9.60;;;10.90;30.20;;;;;;5041500;28;20449;-44
2022/03/06 10:24:54;;;;;;;11.13;9.43;;;10.80;29.80;;;;;;5028602;28;20954;-43
2022/03/06 10:27:57;;;;;;;14.40;10.17;;;11.00;29.50;;;;;;5047877;28;20845;-45
2022/03/06 10:30:28;;;;;;;11.57;8.10;;;10.60;29.50;;;;;;5042554;28;20847;-47
2022/03/06 10:32:55;;;;;;;12.40;9.20;;;10.50;29.80;;;;;;5038144;28;20561;-45
2022/03/06 10:35:41;;;;;;;11.23;8.13;;;10.70;29.70;;;;;;5041951;28;20450;-44
2022/03/06 10:38:22;;;;;;;12.07;9.10;;;10.80;29.00;;;;;;5037552;28;20514;-45
2022/03/06 10:40:50;;;;;;;11.53;8.73;;;11.00;28.40;;;;;;5042576;28;20492;-46
2022/03/06 10:43:19;;;;;;;11.70;8.47;;;10.80;28.40;;;;;;5046701;28;20475;-45
2022/03/06 10:45:46;;;;;;;13.30;9.47;;;10.80;28.40;;;;;;5048731;28;20445;-46
2022/03/06 10:48:12;;;;;;;11.47;9.43;;;10.80;28.90;;;;;;5046058;28;20430;-47
2022/03/06 10:50:37;;;;;;;12.83;9.30;;;10.70;28.90;;;;;;5038631;28;20432;-43
2022/03/06 10:53:28;;;;;;;13.00;8.90;;;10.70;29.40;;;;;;5036788;28;20189;-47
2022/03/06 10:55:54;;;;;;;14.10;8.73;;;10.50;29.00;;;;;;5038511;28;20211;-43
2022/03/06 10:58:21;;;;;;;12.70;8.50;;;10.60;29.00;;;;;;5047357;28;20430;-44
2022/03/06 11:00:48;;;;;;;11.53;8.53;;;10.90;28.80;;;;;;5050162;28;20450;-46
2022/03/06 11:03:14;;;;;;;11.50;8.60;;;11.10;28.60;;;;;;5048296;28;20482;-46
2022/03/06 11:05:42;;;;;;;11.50;8.80;;;11.20;28.30;;;;;;5046044;28;20454;-44
2022/03/06 11:08:11;;;;;;;10.30;8.17;;;11.30;28.30;;;;;;5047459;28;20436;-44
2022/03/06 11:10:40;;;;;;;10.97;8.73;;;11.10;29.10;;;;;;5042295;28;20435;-45
2022/03/06 11:13:06;;;;;;;10.00;8.23;;;11.10;29.10;;;;;;5040744;28;20432;-43
2022/03/06 11:15:32;;;;;;;10.80;9.10;;;11.10;28.50;;;;;;5049633;28;20507;-45
2022/03/06 11:18:01;;;;;;;11.17;8.80;;;11.30;28.30;;;;;;5048346;28;20480;-47
2022/03/06 11:20:32;;;;;;;11.97;8.63;;;11.70;28.20;;;;;;5050208;28;20791;-44
2022/03/06 11:23:09;;;;;;;9.50;7.80;;;11.90;27.80;;;;;;5036128;28;20451;-43
2022/03/06 11:25:45;;;;;;;11.13;9.07;;;12.10;28.20;;;;;;5049568;28;20489;-44
2022/03/06 11:28:28;;;;;;;10.13;8.03;;;12.20;27.20;;;;;;5044865;28;20485;-43
2022/03/06 11:30:58;;;;;;;9.87;8.53;;;11.90;27.40;;;;;;5039783;28;20438;-43
2022/03/06 11:33:24;;;;;;;10.03;7.80;;;11.90;27.80;;;;;;5048770;28;20440;-43
2022/03/06 11:35:50;;;;;;;12.73;8.57;;;12.30;27.20;;;;;;5043333;28;20519;-44
2022/03/06 11:38:17;;;;;;;10.03;7.90;;;12.70;27.50;;;;;;5038311;28;20834;-43
2022/03/06 11:40:53;;;;;;;13.40;9.70;;;12.30;26.40;;;;;;5046633;28;20450;-46
2022/03/06 11:43:28;;;;;;;10.70;7.67;;;12.60;27.30;;;;;;5049725;28;20529;-44
2022/03/06 11:46:05;;;;;;;10.07;8.00;;;13.20;26.90;;;;;;5051068;28;20438;-44
2022/03/06 11:48:34;;;;;;;10.63;8.73;;;13.40;25.80;;;;;;5049148;28;20546;-44
2022/03/06 11:51:15;;;;;;;14.70;9.70;;;13.90;27.20;;;;;;5049995;28;20526;-43
2022/03/06 11:54:02;;;;;;;11.27;9.07;;;14.40;27.50;;;;;;5036657;28;20497;-44
2022/03/06 11:56:38;;;;;;;9.67;8.37;;;14.50;26.90;;;;;;5049313;28;20446;-48
2022/03/06 11:59:08;;;;;;;10.90;8.53;;;14.70;26.30;;;;;;5044297;28;20515;-45
2022/03/06 12:01:35;;;;;;;10.40;8.10;;;14.30;25.30;;;;;;5044371;28;20458;-43
2022/03/06 12:04:12;;;;;;;9.90;8.90;;;14.00;25.90;;;;;;5049689;28;20543;-43
2022/03/06 12:06:49;;;;;;;10.10;8.40;;;13.50;25.80;;;;;;5042049;28;20428;-44
2022/03/06 12:09:17;;;;;;;9.00;7.67;;;12.90;26.10;;;;;;5047706;28;20447;-47
2022/03/06 12:11:44;;;;;;;12.03;8.70;;;12.70;27.30;;;;;;5047032;28;20439;-44
2022/03/06 12:14:33;;;;;;;18.43;12.97;;;12.90;27.30;;;;;;5046437;28;20534;-45
2022/03/06 12:17:02;;;;;;;16.67;11.90;;;13.00;27.00;;;;;;5041609;28;21007;-44
2022/03/06 12:19:32;;;;;;;43.17;27.60;;;13.10;27.10;;;;;;5044221;28;20916;-44
2022/03/06 12:22:21;;;;;;;13.10;10.70;;;13.20;26.90;;;;;;5047343;28;22391;-44
2022/03/06 12:25:03;;;;;;;13.00;11.20;;;13.30;27.00;;;;;;5049431;28;20514;-44
2022/03/06 12:27:30;;;;;;;10.43;9.27;;;13.40;26.90;;;;;;5044082;28;20451;-45
2022/03/06 12:29:57;;;;;;;9.30;8.20;;;13.50;27.10;;;;;;5044289;28;20450;-43
2022/03/06 12:32:29;;;;;;;11.63;8.27;;;13.70;27.30;;;;;;5045464;28;20431;-43
2022/03/06 12:35:25;;;;;;;11.07;8.70;;;13.70;26.20;;;;;;5044493;28;20865;-44